Time;durP1;ratioP1;P1;durP2;ratioP2;P2;SDS_P1;SDS_P2;PMS_P1;PMS_P2;Temp;Humidity;BMP_temperature;BMP_pressure;BME280_temperature;BME280_humidity;BME280_pressure;Samples;Min_cycle;Max_cycle;Signal;HPM_P1;HPM_P2
2021/05/15 00:00:29;;;;;;;7.45;2.40;;;;;;;14.19;68.33;99483.20;1719897;82;21567;-72
2021/05/15 00:02:57;;;;;;;3.12;2.30;;;;;;;14.15;68.46;99488.50;1719150;83;21070;-72
2021/05/15 00:05:23;;;;;;;3.85;2.00;;;;;;;14.10;68.65;99484.20;1719402;83;21707;-72
2021/05/15 00:07:50;;;;;;;5.03;2.40;;;;;;;14.04;68.76;99488.83;1719254;83;21069;-72
2021/05/15 00:10:17;;;;;;;6.55;2.60;;;;;;;14.01;68.87;99488.67;1727902;82;21038;-72
2021/05/15 00:12:43;;;;;;;6.22;2.45;;;;;;;13.98;69.03;99484.17;1741196;82;20990;-72
2021/05/15 00:15:11;;;;;;;4.90;2.20;;;;;;;13.93;69.21;99486.02;1719641;83;20998;-72
2021/05/15 00:17:39;;;;;;;6.92;2.40;;;;;;;13.87;69.40;99487.98;1719688;83;21785;-72
2021/05/15 00:20:11;;;;;;;4.90;2.45;;;;;;;13.81;69.58;99484.68;1719505;83;21494;-73
2021/05/15 00:22:39;;;;;;;3.60;2.40;;;;;;;13.78;69.89;99492.13;1692812;83;21046;-72
2021/05/15 00:25:07;;;;;;;6.00;2.55;;;;;;;13.71;70.18;99486.66;1719478;83;21069;-72
2021/05/15 00:27:35;;;;;;;4.45;2.40;;;;;;;13.66;70.49;99487.13;1722097;82;20970;-72
2021/05/15 00:30:07;;;;;;;5.62;2.50;;;;;;;13.63;70.65;99489.30;1748273;80;21780;-72
2021/05/15 00:32:33;;;;;;;4.85;2.70;;;;;;;13.58;70.78;99482.30;1748729;82;20974;-72
2021/05/15 00:34:59;;;;;;;3.98;2.70;;;;;;;13.55;70.92;99488.77;1749488;82;21517;-72
2021/05/15 00:37:26;;;;;;;4.75;2.70;;;;;;;13.53;71.01;99485.95;1749362;82;21109;-72
2021/05/15 00:39:53;;;;;;;6.83;2.58;;;;;;;13.51;71.14;99482.61;1749342;82;21019;-72
2021/05/15 00:42:19;;;;;;;5.33;2.85;;;;;;;13.48;71.24;99493.06;1749191;82;21696;-72
2021/05/15 00:44:46;;;;;;;4.42;2.60;;;;;;;13.43;71.37;99496.70;1734471;82;21089;-72
2021/05/15 00:47:15;;;;;;;7.58;2.80;;;;;;;13.40;71.55;99499.66;1749485;82;20998;-72
2021/05/15 00:49:43;;;;;;;5.22;2.85;;;;;;;13.36;71.74;99494.36;1749323;82;21482;-72
2021/05/15 00:52:10;;;;;;;6.00;2.77;;;;;;;13.32;71.91;99495.69;1743415;80;21081;-72
2021/05/15 00:54:39;;;;;;;4.53;2.58;;;;;;;13.29;72.01;99498.63;1719663;82;21748;-72
2021/05/15 00:57:08;;;;;;;6.53;2.80;;;;;;;13.26;72.14;99502.94;1719316;83;21081;-73
2021/05/15 00:59:39;;;;;;;4.22;3.15;;;;;;;13.23;72.20;99500.63;1722158;82;20978;-72
2021/05/15 01:02:10;;;;;;;5.62;3.40;;;;;;;13.18;72.44;99507.19;1730301;82;21101;-73
2021/05/15 01:04:37;;;;;;;6.22;2.98;;;;;;;13.16;72.50;99510.99;1719465;83;21025;-72
2021/05/15 01:07:07;;;;;;;4.58;3.05;;;;;;;13.13;72.57;99512.65;1719396;83;21782;-72
2021/05/15 01:09:36;;;;;;;6.50;3.40;;;;;;;13.10;72.74;99517.75;1733580;82;21572;-72
2021/05/15 01:12:09;;;;;;;8.90;3.47;;;;;;;13.05;72.88;99516.08;1721805;82;21488;-72
2021/05/15 01:14:37;;;;;;;4.58;2.72;;;;;;;13.00;72.98;99515.71;1749397;82;21631;-72
2021/05/15 01:17:09;;;;;;;5.10;3.35;;;;;;;12.94;73.09;99520.34;1721862;82;20974;-72
2021/05/15 01:19:38;;;;;;;5.55;3.35;;;;;;;12.90;73.25;99521.63;1724123;82;21800;-72
2021/05/15 01:22:14;;;;;;;5.67;3.52;;;;;;;12.85;73.34;99522.11;1719397;83;21006;-72
2021/05/15 01:24:44;;;;;;;6.37;3.50;;;;;;;12.82;73.44;99517.59;1737999;82;20978;-72
2021/05/15 01:27:13;;;;;;;6.55;3.33;;;;;;;12.79;73.56;99520.58;1749241;82;20971;-72
2021/05/15 01:29:41;;;;;;;6.75;3.80;;;;;;;12.76;73.69;99519.08;1749399;82;21521;-72
2021/05/15 01:32:08;;;;;;;5.25;3.70;;;;;;;12.73;73.83;99519.86;1749254;82;21804;-72
2021/05/15 01:34:35;;;;;;;7.35;3.50;;;;;;;12.69;73.99;99518.03;1748452;82;20983;-72
2021/05/15 01:37:02;;;;;;;9.08;4.03;;;;;;;12.67;74.14;99519.19;1719549;83;21002;-72
2021/05/15 01:39:30;;;;;;;8.08;3.92;;;;;;;12.65;74.26;99527.78;1719489;82;21556;-72
2021/05/15 01:41:56;;;;;;;10.30;3.92;;;;;;;12.61;74.33;99523.27;1719702;82;21050;-72
2021/05/15 01:44:23;;;;;;;5.97;3.60;;;;;;;12.59;74.50;99520.78;1719566;83;21772;-72
2021/05/15 01:46:50;;;;;;;7.25;3.62;;;;;;;12.55;74.60;99518.12;1719407;83;20955;-72
2021/05/15 01:49:16;;;;;;;6.30;3.87;;;;;;;12.52;74.69;99527.67;1719443;83;21064;-72
2021/05/15 01:51:42;;;;;;;4.65;3.77;;;;;;;12.50;74.78;99528.34;1720391;82;21002;-72
2021/05/15 01:54:09;;;;;;;6.75;3.85;;;;;;;12.46;74.84;99517.72;1719599;83;21026;-72
2021/05/15 01:56:37;;;;;;;6.83;4.08;;;;;;;12.44;74.96;99524.14;1704715;82;21726;-72
2021/05/15 01:59:07;;;;;;;6.17;4.08;;;;;;;12.41;75.08;99525.78;1723490;82;20994;-72
2021/05/15 02:01:32;;;;;;;7.17;4.65;;;;;;;12.37;75.27;99527.09;1719309;82;20966;-72
2021/05/15 02:04:00;;;;;;;8.20;4.78;;;;;;;12.33;75.42;99527.87;1719442;83;21130;-72
2021/05/15 02:06:27;;;;;;;6.67;4.40;;;;;;;12.30;75.56;99528.18;1719288;83;21204;-72
2021/05/15 02:08:54;;;;;;;6.47;4.53;;;;;;;12.28;75.67;99524.86;1723747;82;21774;-72
2021/05/15 02:11:20;;;;;;;7.53;4.70;;;;;;;12.27;75.77;99530.66;1749184;82;21462;-72
2021/05/15 02:13:49;;;;;;;8.23;4.75;;;;;;;12.27;75.87;99531.15;1731176;82;21050;-72
2021/05/15 02:16:17;;;;;;;8.98;4.72;;;;;;;12.25;75.97;99537.89;1719379;83;21164;-72
2021/05/15 02:18:46;;;;;;;8.15;4.62;;;;;;;12.26;76.01;99536.11;1719392;83;21054;-72
2021/05/15 02:21:13;;;;;;;5.70;4.80;;;;;;;12.23;76.11;99542.52;1719416;83;21727;-72
2021/05/15 02:23:41;;;;;;;10.60;5.03;;;;;;;12.20;76.22;99536.70;1719372;83;21017;-72
2021/05/15 02:26:08;;;;;;;11.03;5.22;;;;;;;12.17;76.43;99537.84;1726134;82;21049;-72
2021/05/15 02:28:34;;;;;;;6.90;4.80;;;;;;;12.15;76.58;99541.61;1747110;82;20995;-72
2021/05/15 02:31:00;;;;;;;5.92;4.90;;;;;;;12.14;76.66;99536.81;1749294;82;21054;-72
2021/05/15 02:33:27;;;;;;;6.78;4.83;;;;;;;12.14;76.74;99533.33;1749360;82;21733;-72
2021/05/15 02:35:53;;;;;;;8.30;5.12;;;;;;;12.12;76.78;99533.48;1749296;82;21010;-72
2021/05/15 02:38:20;;;;;;;9.10;4.95;;;;;;;12.12;76.87;99532.16;1749280;82;21022;-72
2021/05/15 02:40:47;;;;;;;8.23;4.87;;;;;;;12.12;77.01;99539.28;1749160;82;21042;-72
2021/05/15 02:43:15;;;;;;;7.90;5.05;;;;;;;12.11;77.10;99539.77;1743656;82;20974;-72
2021/05/15 02:45:42;;;;;;;8.28;5.42;;;;;;;12.09;77.19;99543.06;1749186;82;21737;-72
2021/05/15 02:48:10;;;;;;;10.35;4.97;;;;;;;12.09;77.24;99547.53;1749270;82;21026;-72
2021/05/15 02:50:36;;;;;;;7.53;5.17;;;;;;;12.11;77.35;99552.17;1721338;82;21615;-72
2021/05/15 02:53:03;;;;;;;8.80;5.40;;;;;;;12.11;77.48;99550.85;1719874;82;20982;-72
2021/05/15 02:55:30;;;;;;;12.03;6.00;;;;;;;12.10;77.54;99551.34;1719358;83;21034;-72
2021/05/15 02:57:56;;;;;;;8.23;5.85;;;;;;;12.11;77.70;99553.00;1719428;82;22531;-72
2021/05/15 03:00:25;;;;;;;9.05;5.87;;;;;;;12.10;77.77;99557.13;1729163;82;20955;-72
2021/05/15 03:02:52;;;;;;;8.45;5.58;;;;;;;12.11;77.86;99562.27;1749287;82;20947;-72
2021/05/15 03:05:22;;;;;;;8.58;5.47;;;;;;;12.13;77.86;99563.44;1749152;82;21041;-72
2021/05/15 03:07:49;;;;;;;12.25;5.47;;;;;;;12.14;77.96;99570.39;1720485;82;21038;-72
2021/05/15 03:10:15;;;;;;;7.50;5.12;;;;;;;12.14;78.02;99573.87;1730660;82;21770;-72
2021/05/15 03:12:42;;;;;;;9.08;6.17;;;;;;;12.14;78.12;99574.36;1735238;82;20988;-72
2021/05/15 03:15:11;;;;;;;8.83;5.42;;;;;;;12.14;78.18;99577.02;1735241;82;21057;-72
2021/05/15 03:17:40;;;;;;;8.40;5.70;;;;;;;12.16;78.20;99577.22;1721630;82;21062;-72
2021/05/15 03:20:12;;;;;;;12.05;6.10;;;;;;;12.18;78.21;99581.04;1705804;84;21019;-72
2021/05/15 03:22:38;;;;;;;8.40;5.65;;;;;;;12.17;78.24;99580.20;1705910;84;22347;-72
2021/05/15 03:25:06;;;;;;;9.85;5.97;;;;;;;12.18;78.25;99579.22;1706398;82;21074;-72
2021/05/15 03:27:33;;;;;;;8.05;5.78;;;;;;;12.18;78.29;99575.25;1705893;84;20990;-72
2021/05/15 03:29:59;;;;;;;8.25;6.45;;;;;;;12.18;78.32;99573.09;1705967;84;21554;-72
2021/05/15 03:32:26;;;;;;;7.65;6.00;;;;;;;12.19;78.38;99582.70;1725037;82;21102;-72
2021/05/15 03:34:52;;;;;;;7.97;6.20;;;;;;;12.19;78.42;99580.88;1718969;82;21800;-72
2021/05/15 03:37:19;;;;;;;9.30;6.22;;;;;;;12.22;78.46;99575.77;1705865;82;21042;-72
2021/05/15 03:39:45;;;;;;;9.35;6.35;;;;;;;12.25;78.49;99584.72;1735207;82;20975;-72
2021/05/15 03:42:12;;;;;;;11.12;6.55;;;;;;;12.27;78.53;99582.78;1735282;82;20991;-73
2021/05/15 03:44:38;;;;;;;9.55;6.22;;;;;;;12.31;78.57;99582.30;1716090;82;21064;-72
2021/05/15 03:47:05;;;;;;;9.83;6.45;;;;;;;12.36;78.58;99585.02;1705866;84;21784;-73
2021/05/15 03:49:32;;;;;;;10.70;6.55;;;;;;;12.40;78.58;99581.06;1705911;84;21002;-73
2021/05/15 03:51:59;;;;;;;12.28;6.15;;;;;;;12.45;78.56;99585.39;1723099;82;21517;-73
2021/05/15 03:54:26;;;;;;;9.25;5.42;;;;;;;12.48;78.58;99588.58;1735440;82;21018;-73
2021/05/15 03:56:52;;;;;;;12.13;7.05;;;;;;;12.51;78.56;99593.56;1727182;82;21003;-72
2021/05/15 03:59:18;;;;;;;9.78;6.97;;;;;;;12.55;78.55;99592.78;1706678;82;21732;-74
2021/05/15 04:01:46;;;;;;;9.58;6.55;;;;;;;12.61;78.51;99594.80;1705954;84;21414;-73
2021/05/15 04:04:13;;;;;;;8.60;6.67;;;;;;;12.66;78.38;99596.51;1685885;84;21057;-73
2021/05/15 04:06:39;;;;;;;9.50;6.55;;;;;;;12.72;78.29;99601.17;1705879;84;21067;-73
2021/05/15 04:09:06;;;;;;;17.30;6.80;;;;;;;12.77;78.19;99601.55;1737873;82;21616;-73
2021/05/15 04:11:37;;;;;;;8.15;5.45;;;;;;;12.82;78.10;99599.75;1749466;82;22281;-73
2021/05/15 04:17:14;;;;;;;9.63;6.67;;;;;;;12.92;77.85;99604.45;1743098;82;21449;-73
2021/05/15 04:19:29;;;;;;;9.03;7.00;;;;;;;12.98;77.70;99609.15;1747088;82;21070;-73
2021/05/15 04:21:56;;;;;;;9.20;6.47;;;;;;;13.06;77.59;99608.38;1749355;82;21074;-73
2021/05/15 04:24:26;;;;;;;8.60;5.92;;;;;;;13.13;77.43;99612.91;1749393;82;22385;-73
2021/05/15 04:26:58;;;;;;;11.22;6.53;;;;;;;13.22;77.25;99607.66;1720656;82;20999;-73
2021/05/15 04:29:26;;;;;;;7.15;5.95;;;;;;;13.30;76.99;99609.86;1693996;83;20970;-73
2021/05/15 04:31:54;;;;;;;9.43;6.20;;;;;;;13.38;76.75;99613.05;1744952;82;21556;-74
2021/05/15 04:34:21;;;;;;;11.95;6.85;;;;;;;13.41;76.52;99603.44;1749400;82;21022;-72
2021/05/15 04:36:47;;;;;;;9.30;6.22;;;;;;;13.45;76.30;99610.94;1749442;82;21775;-72
2021/05/15 04:39:14;;;;;;;7.20;6.05;;;;;;;13.52;76.12;99615.13;1748451;82;20987;-73
2021/05/15 04:41:40;;;;;;;10.35;7.22;;;;;;;13.58;75.94;99610.48;1747982;82;20967;-73
2021/05/15 04:44:07;;;;;;;8.55;6.60;;;;;;;13.66;75.82;99621.64;1719363;83;21061;-72
2021/05/15 04:46:34;;;;;;;7.50;5.60;;;;;;;13.71;75.56;99617.52;1719632;83;21006;-73
2021/05/15 04:49:01;;;;;;;9.43;6.22;;;;;;;13.78;75.37;99619.02;1719563;83;21807;-73
2021/05/15 04:51:27;;;;;;;6.83;5.40;;;;;;;13.86;75.27;99627.52;1692892;83;21018;-73
2021/05/15 04:53:53;;;;;;;7.62;4.95;;;;;;;13.94;74.96;99621.73;1731265;82;21461;-74
2021/05/15 04:56:20;;;;;;;9.93;6.50;;;;;;;14.02;74.59;99635.04;1749295;82;21608;-73
2021/05/15 04:58:46;;;;;;;10.23;6.00;;;;;;;14.08;74.29;99636.20;1721827;82;21746;-73
2021/05/15 05:01:13;;;;;;;9.03;5.85;;;;;;;14.15;73.91;99635.89;1716760;82;22525;-73
2021/05/15 05:03:40;;;;;;;9.45;5.90;;;;;;;14.19;73.56;99641.23;1719419;83;21071;-73
2021/05/15 05:06:06;;;;;;;7.55;5.10;;;;;;;14.23;73.41;99627.12;1719525;83;21049;-73
2021/05/15 05:08:33;;;;;;;10.03;5.40;;;;;;;14.30;73.17;99631.62;1719451;82;21452;-73
2021/05/15 05:11:01;;;;;;;10.60;5.20;;;;;;;14.37;72.86;99633.09;1719610;82;20970;-73
2021/05/15 05:13:27;;;;;;;5.50;4.53;;;;;;;14.48;72.69;99635.99;1728542;82;21702;-73
2021/05/15 05:15:55;;;;;;;10.25;5.28;;;;;;;14.59;72.36;99638.32;1744999;82;21014;-74
2021/05/15 05:18:21;;;;;;;9.53;4.80;;;;;;;14.66;71.98;99640.63;1719636;82;21576;-73
2021/05/15 05:20:47;;;;;;;8.60;4.08;;;;;;;14.75;71.79;99640.96;1693046;83;20983;-73
2021/05/15 05:23:15;;;;;;;5.35;3.70;;;;;;;14.87;71.57;99646.80;1719446;83;21018;-73
2021/05/15 05:25:42;;;;;;;7.75;3.67;;;;;;;14.98;71.17;99648.28;1719559;83;21423;-72
2021/05/15 05:28:08;;;;;;;10.38;3.90;;;;;;;15.08;70.39;99648.94;1719628;83;20971;-72
2021/05/15 05:30:34;;;;;;;4.25;2.98;;;;;;;15.15;69.88;99647.23;1719719;82;20954;-72
2021/05/15 05:33:01;;;;;;;7.97;3.22;;;;;;;15.22;69.33;99650.06;1726176;82;21038;-72
2021/05/15 05:35:28;;;;;;;4.95;3.02;;;;;;;15.30;69.20;99655.38;1719521;83;21521;-72
2021/05/15 05:37:54;;;;;;;4.17;2.70;;;;;;;15.39;68.79;99660.50;1725940;82;21758;-73
2021/05/15 05:40:21;;;;;;;4.20;2.90;;;;;;;15.48;68.26;99667.97;1719540;82;21030;-72
2021/05/15 05:42:48;;;;;;;6.05;2.47;;;;;;;15.54;67.73;99664.64;1719695;82;20974;-72
2021/05/15 05:45:16;;;;;;;4.22;2.25;;;;;;;15.60;67.49;99664.44;1719450;83;21469;-73
2021/05/15 05:47:42;;;;;;;3.50;2.05;;;;;;;15.69;67.36;99666.11;1719648;82;21002;-72
2021/05/15 05:50:11;;;;;;;5.20;1.90;;;;;;;15.79;66.37;99672.05;1720761;82;21773;-72
2021/05/15 05:52:38;;;;;;;7.22;1.92;;;;;;;15.88;66.05;99672.36;1747578;82;21054;-73
2021/05/15 05:55:06;;;;;;;4.80;2.00;;;;;;;15.96;65.18;99668.83;1724734;82;21076;-73
2021/05/15 05:57:34;;;;;;;4.53;1.70;;;;;;;16.03;64.96;99666.64;1719599;82;20969;-73
2021/05/15 06:00:03;;;;;;;3.98;1.82;;;;;;;16.12;64.34;99670.59;1719506;82;21577;-73
2021/05/15 06:02:31;;;;;;;2.62;1.60;;;;;;;16.19;63.90;99669.70;1725142;82;22283;-74
2021/05/15 06:04:58;;;;;;;4.20;1.70;;;;;;;16.30;63.30;99673.80;1730629;82;21093;-73
2021/05/15 06:07:24;;;;;;;2.80;1.57;;;;;;;16.38;62.78;99680.42;1720366;82;21010;-72
2021/05/15 06:09:51;;;;;;;3.42;1.95;;;;;;;16.43;62.29;99673.24;1705974;82;21007;-72
2021/05/15 06:12:18;;;;;;;2.65;1.67;;;;;;;16.50;62.01;99677.70;1725463;82;21569;-74
2021/05/15 06:14:45;;;;;;;3.33;1.52;;;;;;;16.57;61.92;99673.80;1735074;82;22374;-72
2021/05/15 06:17:12;;;;;;;3.08;1.57;;;;;;;16.67;61.69;99669.56;1733333;82;21047;-73
2021/05/15 06:19:40;;;;;;;2.98;1.40;;;;;;;16.78;61.49;99677.17;1735399;82;21062;-72
2021/05/15 06:22:08;;;;;;;2.72;1.57;;;;;;;16.91;61.35;99679.26;1735264;82;21086;-75
2021/05/15 06:24:39;;;;;;;2.55;1.37;;;;;;;16.99;60.82;99674.69;1722930;82;20978;-72
2021/05/15 06:27:04;;;;;;;1.98;1.37;;;;;;;17.08;60.68;99676.27;1705719;83;21791;-73
2021/05/15 06:29:31;;;;;;;3.15;1.30;;;;;;;17.22;60.20;99677.30;1705918;82;20960;-72
2021/05/15 06:31:57;;;;;;;4.65;1.55;;;;;;;17.32;60.02;99671.70;1714745;81;21067;-73
2021/05/15 06:34:24;;;;;;;4.03;1.37;;;;;;;17.42;59.60;99681.09;1718530;82;20978;-73
2021/05/15 06:36:51;;;;;;;2.05;1.10;;;;;;;17.51;58.94;99675.67;1687360;82;21829;-75
2021/05/15 06:39:17;;;;;;;4.37;1.52;;;;;;;17.60;58.70;99671.39;1735406;82;22364;-73
2021/05/15 06:41:44;;;;;;;3.17;1.40;;;;;;;17.73;57.83;99672.93;1720784;82;21018;-73
2021/05/15 06:44:11;;;;;;;4.03;1.12;;;;;;;17.78;57.43;99668.39;1705960;83;20944;-73
2021/05/15 06:46:38;;;;;;;3.17;1.35;;;;;;;17.84;57.72;99672.97;1705983;84;21094;-73
2021/05/15 06:49:04;;;;;;;3.33;1.10;;;;;;;17.92;57.01;99674.72;1713036;82;21510;-73
2021/05/15 06:51:31;;;;;;;1.77;0.98;;;;;;;18.03;56.85;99670.23;1719595;82;22405;-73
2021/05/15 06:53:58;;;;;;;2.62;1.07;;;;;;;18.13;56.50;99674.77;1705725;84;21062;-72
2021/05/15 06:56:24;;;;;;;1.17;0.90;;;;;;;18.22;55.67;99676.83;1721200;81;20975;-73
2021/05/15 06:58:52;;;;;;;3.08;1.12;;;;;;;18.26;55.66;99680.80;1724157;82;21500;-73
2021/05/15 07:01:18;;;;;;;4.00;1.00;;;;;;;18.35;55.56;99683.68;1735285;82;21050;-73
2021/05/15 07:03:45;;;;;;;2.20;1.10;;;;;;;18.43;55.30;99685.38;1715308;82;21768;-73
2021/05/15 07:06:12;;;;;;;4.85;1.10;;;;;;;18.54;55.41;99690.26;1705931;84;21527;-74
2021/05/15 07:08:40;;;;;;;4.60;1.02;;;;;;;18.63;54.25;99686.45;1710892;82;21006;-72
2021/05/15 07:11:07;;;;;;;1.15;0.90;;;;;;;18.64;53.76;99693.45;1719489;83;21105;-72
2021/05/15 07:13:34;;;;;;;1.75;0.90;;;;;;;18.62;53.54;99691.45;1721453;82;21516;-73
2021/05/15 07:16:00;;;;;;;1.50;0.80;;;;;;;18.63;53.70;99698.48;1735180;82;21591;-74
2021/05/15 07:18:28;;;;;;;1.27;0.72;;;;;;;18.65;53.04;99688.45;1734593;82;21057;-71
2021/05/15 07:20:54;;;;;;;1.25;0.90;;;;;;;18.67;53.42;99689.59;1719508;82;20974;-71
2021/05/15 07:23:21;;;;;;;2.52;0.80;;;;;;;18.76;53.08;99691.13;1719495;83;20986;-72
2021/05/15 07:25:47;;;;;;;1.02;0.70;;;;;;;18.81;53.46;99691.36;1724883;82;21580;-72
2021/05/15 07:28:14;;;;;;;1.98;0.90;;;;;;;18.93;53.17;99686.34;1749512;82;22312;-71
2021/05/15 07:30:40;;;;;;;3.37;0.90;;;;;;;19.01;52.72;99691.53;1749186;82;21025;-72
2021/05/15 07:33:07;;;;;;;3.95;1.10;;;;;;;19.03;52.40;99688.18;1729971;82;20982;-72
2021/05/15 07:35:35;;;;;;;3.42;1.10;;;;;;;19.01;52.72;99694.21;1719602;83;21026;-72
2021/05/15 07:38:02;;;;;;;2.55;1.00;;;;;;;18.96;53.21;99694.80;1719603;82;20998;-72
2021/05/15 07:40:30;;;;;;;0.93;0.82;;;;;;;18.96;52.50;99684.61;1719628;82;21599;-72
2021/05/15 07:42:57;;;;;;;2.83;0.90;;;;;;;19.06;52.71;99689.13;1723696;82;21042;-72
2021/05/15 07:45:23;;;;;;;2.35;0.80;;;;;;;19.11;52.50;99684.86;1719669;82;21023;-72
2021/05/15 07:47:50;;;;;;;1.42;0.85;;;;;;;19.15;53.21;99694.66;1719532;83;21006;-72
2021/05/15 07:50:16;;;;;;;1.85;0.90;;;;;;;19.30;51.95;99692.73;1720523;82;21541;-72
2021/05/15 07:52:42;;;;;;;1.07;0.78;;;;;;;19.34;52.08;99693.16;1719563;83;21765;-72
2021/05/15 07:55:11;;;;;;;1.47;0.93;;;;;;;19.42;51.48;99698.37;1719492;83;21560;-72
2021/05/15 07:57:37;;;;;;;2.27;1.10;;;;;;;19.50;51.30;99700.07;1719565;82;21048;-72
2021/05/15 08:00:06;;;;;;;1.40;0.80;;;;;;;19.61;51.33;99697.70;1719591;82;21069;-72
2021/05/15 08:02:35;;;;;;;0.95;0.75;;;;;;;19.70;50.51;99696.52;1718930;83;20984;-72
2021/05/15 08:05:01;;;;;;;0.78;0.78;;;;;;;19.72;50.52;99701.16;1741337;82;21709;-72
2021/05/15 08:07:29;;;;;;;0.90;0.80;;;;;;;19.77;49.78;99697.05;1725895;82;21539;-72
2021/05/15 08:09:56;;;;;;;2.12;0.75;;;;;;;19.83;50.57;99701.63;1709096;83;21050;-73
2021/05/15 08:12:23;;;;;;;2.67;0.70;;;;;;;19.97;50.49;99693.44;1705824;82;21509;-73
2021/05/15 08:14:49;;;;;;;1.32;0.80;;;;;;;20.09;49.45;99698.27;1713578;82;21007;-73
2021/05/15 08:17:16;;;;;;;3.17;0.75;;;;;;;20.18;48.64;99697.89;1713873;82;22608;-73
2021/05/15 08:19:42;;;;;;;0.90;0.70;;;;;;;20.22;48.54;99700.98;1706074;83;21498;-73
2021/05/15 08:22:09;;;;;;;2.15;0.80;;;;;;;20.33;48.43;99708.96;1713389;82;21031;-73
2021/05/15 08:24:35;;;;;;;2.98;0.90;;;;;;;20.41;47.35;99698.88;1710293;82;21470;-71
2021/05/15 08:27:02;;;;;;;0.85;0.70;;;;;;;20.54;47.03;99698.94;1705867;84;20991;-71
2021/05/15 08:29:29;;;;;;;1.50;0.88;;;;;;;20.70;46.19;99702.29;1706099;84;21770;-72
2021/05/15 08:31:56;;;;;;;1.12;0.70;;;;;;;20.80;46.50;99702.20;1705945;82;20986;-72
2021/05/15 08:34:23;;;;;;;2.85;0.90;;;;;;;20.87;45.52;99706.24;1706002;84;20971;-72
2021/05/15 08:36:50;;;;;;;3.62;0.72;;;;;;;20.88;45.34;99706.55;1706121;83;21537;-72
2021/05/15 08:39:16;;;;;;;1.27;0.70;;;;;;;20.90;44.69;99700.97;1706034;84;20995;-72
2021/05/15 08:41:45;;;;;;;1.15;0.62;;;;;;;20.97;45.18;99703.98;1732759;82;21620;-72
2021/05/15 08:44:13;;;;;;;1.50;0.78;;;;;;;21.13;45.30;99694.67;1735381;82;20959;-72
2021/05/15 08:46:44;;;;;;;1.07;0.68;;;;;;;21.30;44.85;99699.15;1729990;82;21066;-72
2021/05/15 08:49:11;;;;;;;1.90;0.70;;;;;;;21.37;45.27;99695.95;1706165;82;21070;-74
2021/05/15 08:51:38;;;;;;;2.37;0.50;;;;;;;21.46;44.69;99694.70;1727513;82;21048;-72
2021/05/15 08:54:05;;;;;;;0.90;0.47;;;;;;;21.47;43.16;99704.41;1735305;81;21675;-72
2021/05/15 08:56:31;;;;;;;4.17;0.62;;;;;;;21.43;43.31;99705.35;1733359;82;20991;-72
2021/05/15 08:58:58;;;;;;;1.82;0.50;;;;;;;21.49;43.47;99693.45;1706252;82;21038;-73
2021/05/15 09:01:25;;;;;;;3.30;0.72;;;;;;;21.50;43.65;99698.61;1706090;84;21485;-72
2021/05/15 09:03:51;;;;;;;2.75;0.80;;;;;;;21.41;43.07;99699.34;1704196;83;20994;-73
2021/05/15 09:06:17;;;;;;;1.10;0.60;;;;;;;21.32;43.69;99711.33;1706105;82;22263;-73
2021/05/15 09:08:47;;;;;;;3.12;0.55;;;;;;;21.20;43.81;99710.27;1707726;83;21098;-72
2021/05/15 09:11:14;;;;;;;1.32;0.60;;;;;;;21.11;43.70;99713.68;1719488;83;21496;-72
2021/05/15 09:13:53;;;;;;;2.30;0.60;;;;;;;21.07;43.50;99707.59;1720373;82;20974;-73
2021/05/15 09:16:20;;;;;;;0.70;0.60;;;;;;;21.00;43.23;99716.98;1719576;83;21015;-73
2021/05/15 09:18:46;;;;;;;1.17;0.70;;;;;;;20.90;44.30;99716.56;1732273;82;22463;-72
2021/05/15 09:21:20;;;;;;;2.47;0.72;;;;;;;20.85;44.76;99715.02;1733371;82;20955;-71
2021/05/15 09:23:49;;;;;;;1.27;0.50;;;;;;;20.80;44.79;99709.42;1749264;82;21050;-72
2021/05/15 09:26:21;;;;;;;3.62;0.50;;;;;;;20.79;45.37;99709.12;1749318;82;20974;-72
2021/05/15 09:28:55;;;;;;;4.05;0.70;;;;;;;20.95;45.60;99712.77;1719979;82;21571;-72
2021/05/15 09:31:27;;;;;;;1.15;0.50;;;;;;;21.27;44.50;99714.34;1720497;82;21753;-72
2021/05/15 09:33:59;;;;;;;0.70;0.50;;;;;;;21.42;43.38;99709.56;1719458;83;21050;-72
2021/05/15 09:36:31;;;;;;;;;;;;;;;21.49;43.14;99714.42;1722036;83;21643;-73
2021/05/15 09:39:20;;;;;;;1.42;0.62;;;;;;;21.62;43.62;99713.59;1719497;83;21000;-73
2021/05/15 09:41:55;;;;;;;2.25;0.70;;;;;;;21.78;43.33;99715.81;1719610;82;21551;-74
2021/05/15 09:44:28;;;;;;;3.90;0.60;;;;;;;21.99;43.91;99706.66;1719627;82;21806;-73
2021/05/15 09:46:55;;;;;;;7.80;0.70;;;;;;;22.15;42.72;99711.59;1735517;82;21006;-73
2021/05/15 09:49:25;;;;;;;0.85;0.57;;;;;;;22.16;41.39;99704.35;1726852;82;20982;-72
2021/05/15 09:51:58;;;;;;;0.90;0.62;;;;;;;22.18;41.98;99705.78;1719468;83;21508;-72
2021/05/15 09:54:29;;;;;;;1.07;0.50;;;;;;;22.30;42.06;99715.90;1719600;83;20982;-72
2021/05/15 09:57:10;;;;;;;1.02;0.60;;;;;;;22.47;41.25;99721.06;1736785;82;22343;-72
2021/05/15 09:59:51;;;;;;;0.95;0.60;;;;;;;22.51;40.63;99700.26;1720650;82;21097;-73
2021/05/15 10:02:19;;;;;;;1.42;0.50;;;;;;;22.64;40.83;99727.61;1738911;82;21069;-72
2021/05/15 10:04:50;;;;;;;0.93;0.40;;;;;;;22.70;40.57;99706.56;1721868;82;21001;-73
2021/05/15 10:07:24;;;;;;;2.05;0.60;;;;;;;22.88;40.66;99699.13;1749360;82;21465;-73
2021/05/15 10:09:50;;;;;;;1.05;0.47;;;;;;;23.09;39.31;99715.44;1749262;81;21763;-72
2021/05/15 10:12:17;;;;;;;1.12;0.47;;;;;;;23.10;38.53;99701.75;1749231;82;21599;-73
2021/05/15 10:14:43;;;;;;;1.65;0.50;;;;;;;23.07;38.31;99697.33;1749290;82;20977;-73
2021/05/15 10:17:10;;;;;;;1.15;0.50;;;;;;;23.04;39.13;99708.00;1737687;82;21090;-73
2021/05/15 10:19:38;;;;;;;0.80;0.50;;;;;;;23.17;38.76;99705.73;1719396;83;21054;-74
2021/05/15 10:22:04;;;;;;;2.77;0.50;;;;;;;23.41;39.61;99704.89;1725339;82;21737;-73
2021/05/15 10:24:33;;;;;;;2.12;0.42;;;;;;;23.77;37.36;99710.07;1749266;82;21038;-74
2021/05/15 10:27:12;;;;;;;0.60;0.40;;;;;;;23.90;37.20;99705.87;1749314;82;21030;-73
2021/05/15 10:29:44;;;;;;;4.10;0.60;;;;;;;24.00;36.54;99697.25;1747009;82;21098;-73
2021/05/15 10:32:24;;;;;;;0.50;0.50;;;;;;;24.01;36.57;99701.59;1719601;82;21142;-72
2021/05/15 10:35:05;;;;;;;3.50;0.57;;;;;;;24.04;37.28;99694.94;1749302;82;21801;-71
2021/05/15 10:37:39;;;;;;;2.25;0.50;;;;;;;24.05;36.50;99697.41;1748933;82;21474;-71
2021/05/15 10:40:18;;;;;;;2.37;0.60;;;;;;;23.99;37.02;99706.39;1730226;82;21010;-72
2021/05/15 10:42:58;;;;;;;1.60;0.40;;;;;;;24.18;36.91;99707.20;1707569;83;20990;-72
2021/05/15 10:45:40;;;;;;;0.50;0.50;;;;;;;24.25;35.57;99703.38;1719590;83;21481;-71
2021/05/15 10:48:23;;;;;;;2.33;0.50;;;;;;;24.16;36.80;99701.22;1719741;82;21774;-72
2021/05/15 10:51:00;;;;;;;3.08;0.50;;;;;;;24.24;36.83;99704.44;1719249;83;21093;-72
2021/05/15 10:53:30;;;;;;;1.95;0.47;;;;;;;24.36;36.44;99694.25;1749316;82;20983;-72
2021/05/15 10:56:15;;;;;;;0.45;0.30;;;;;;;24.53;34.76;99712.81;1744780;82;21074;-72
2021/05/15 10:58:51;;;;;;;2.60;0.40;;;;;;;24.53;33.33;99707.41;1719467;83;21045;-72
2021/05/15 11:01:21;;;;;;;1.67;0.50;;;;;;;24.58;32.52;99698.08;1719492;83;21564;-72
2021/05/15 11:03:48;;;;;;;1.82;0.30;;;;;;;24.82;33.32;99701.69;1721128;82;22221;-72
2021/05/15 11:06:21;;;;;;;3.40;1.10;;;;;;;24.88;32.29;99698.58;1719646;82;20971;-72
2021/05/15 11:09:02;;;;;;;2.05;1.37;;;;;;;24.63;33.32;99698.23;1719572;83;21595;-72
2021/05/15 11:11:43;;;;;;;1.70;0.70;;;;;;;24.67;33.68;99697.23;1719263;83;21073;-72
2021/05/15 11:14:29;;;;;;;0.50;0.40;;;;;;;24.81;33.50;99694.65;1720463;82;21780;-72
2021/05/15 11:17:06;;;;;;;0.68;0.35;;;;;;;25.01;33.23;99701.09;1720908;82;21018;-72
2021/05/15 11:19:33;;;;;;;1.32;0.40;;;;;;;25.19;31.93;99698.83;1692828;83;20990;-72
2021/05/15 11:22:00;;;;;;;0.70;0.40;;;;;;;25.30;31.10;99701.56;1719370;83;21587;-72
2021/05/15 11:24:34;;;;;;;1.15;0.70;;;;;;;25.41;31.08;99709.38;1719430;83;21002;-72
2021/05/15 11:27:14;;;;;;;0.62;0.40;;;;;;;25.45;30.51;99691.62;1682665;85;22329;-72
2021/05/15 11:29:41;;;;;;;4.08;0.68;;;;;;;25.31;30.46;99684.29;1720139;82;21041;-72
2021/05/15 11:32:15;;;;;;;1.45;0.88;;;;;;;25.05;31.51;99687.43;1719514;82;21054;-72
2021/05/15 11:34:42;;;;;;;1.87;0.53;;;;;;;24.85;31.44;99685.02;1719568;82;21218;-72
2021/05/15 11:37:11;;;;;;;6.62;0.62;;;;;;;24.56;32.11;99678.59;1719463;82;21042;-72
2021/05/15 11:39:38;;;;;;;0.90;0.45;;;;;;;24.44;32.54;99683.14;1719397;83;21772;-72
2021/05/15 11:42:11;;;;;;;2.75;0.60;;;;;;;24.62;33.22;99692.53;1719275;83;21018;-72